sensor_id;sensor_type;location;lat;lon;timestamp;P1;durP1;ratioP1;P2;durP2;ratioP2
34711;SDS011;20941;42.408;25.634;2023-02-26T00:01:16;31.92;;;12.63;;
34711;SDS011;20941;42.408;25.634;2023-02-26T00:03:42;28.88;;;13.93;;
34711;SDS011;20941;42.408;25.634;2023-02-26T00:06:07;32.05;;;13.57;;
34711;SDS011;20941;42.408;25.634;2023-02-26T00:08:33;31.60;;;12.70;;
34711;SDS011;20941;42.408;25.634;2023-02-26T00:10:59;26.08;;;11.07;;
34711;SDS011;20941;42.408;25.634;2023-02-26T00:13:27;22.42;;;11.63;;
34711;SDS011;20941;42.408;25.634;2023-02-26T00:15:55;32.03;;;12.50;;
34711;SDS011;20941;42.408;25.634;2023-02-26T00:18:22;28.75;;;12.35;;
34711;SDS011;20941;42.408;25.634;2023-02-26T00:20:48;24.90;;;12.80;;
34711;SDS011;20941;42.408;25.634;2023-02-26T00:23:13;31.67;;;12.75;;
34711;SDS011;20941;42.408;25.634;2023-02-26T00:25:39;26.70;;;12.73;;
34711;SDS011;20941;42.408;25.634;2023-02-26T00:28:05;26.77;;;12.48;;
34711;SDS011;20941;42.408;25.634;2023-02-26T00:30:31;27.10;;;12.30;;
34711;SDS011;20941;42.408;25.634;2023-02-26T00:32:57;36.55;;;13.40;;
34711;SDS011;20941;42.408;25.634;2023-02-26T00:35:22;25.05;;;12.43;;
34711;SDS011;20941;42.408;25.634;2023-02-26T00:40:16;29.58;;;13.00;;
34711;SDS011;20941;42.408;25.634;2023-02-26T00:42:44;35.67;;;12.98;;
34711;SDS011;20941;42.408;25.634;2023-02-26T00:45:10;28.27;;;13.05;;
34711;SDS011;20941;42.408;25.634;2023-02-26T00:47:41;29.75;;;13.02;;
34711;SDS011;20941;42.408;25.634;2023-02-26T00:50:12;22.05;;;12.40;;
34711;SDS011;20941;42.408;25.634;2023-02-26T00:52:42;30.52;;;12.48;;
34711;SDS011;20941;42.408;25.634;2023-02-26T00:55:08;29.98;;;12.20;;
34711;SDS011;20941;42.408;25.634;2023-02-26T00:57:33;33.83;;;12.23;;
34711;SDS011;20941;42.408;25.634;2023-02-26T00:59:59;27.95;;;12.25;;
34711;SDS011;20941;42.408;25.634;2023-02-26T01:02:24;26.10;;;11.35;;
34711;SDS011;20941;42.408;25.634;2023-02-26T01:04:50;24.67;;;11.73;;
34711;SDS011;20941;42.408;25.634;2023-02-26T01:07:15;25.38;;;12.15;;
34711;SDS011;20941;42.408;25.634;2023-02-26T01:09:43;30.75;;;12.85;;
34711;SDS011;20941;42.408;25.634;2023-02-26T01:12:09;29.23;;;12.80;;
34711;SDS011;20941;42.408;25.634;2023-02-26T01:14:37;34.50;;;13.43;;
34711;SDS011;20941;42.408;25.634;2023-02-26T01:17:06;30.27;;;11.57;;
34711;SDS011;20941;42.408;25.634;2023-02-26T01:22:08;32.42;;;12.77;;
34711;SDS011;20941;42.408;25.634;2023-02-26T01:24:35;24.98;;;11.40;;
34711;SDS011;20941;42.408;25.634;2023-02-26T01:27:01;23.88;;;11.02;;
34711;SDS011;20941;42.408;25.634;2023-02-26T01:29:27;30.60;;;11.00;;
34711;SDS011;20941;42.408;25.634;2023-02-26T01:31:58;27.80;;;10.38;;
34711;SDS011;20941;42.408;25.634;2023-02-26T01:34:38;30.00;;;11.20;;
34711;SDS011;20941;42.408;25.634;2023-02-26T01:39:44;25.83;;;11.20;;
34711;SDS011;20941;42.408;25.634;2023-02-26T01:42:15;30.88;;;11.13;;
34711;SDS011;20941;42.408;25.634;2023-02-26T01:45:15;24.35;;;11.40;;
34711;SDS011;20941;42.408;25.634;2023-02-26T01:47:42;22.38;;;10.68;;
34711;SDS011;20941;42.408;25.634;2023-02-26T01:50:16;29.67;;;11.10;;
34711;SDS011;20941;42.408;25.634;2023-02-26T01:55:16;25.45;;;11.02;;
34711;SDS011;20941;42.408;25.634;2023-02-26T01:57:43;28.95;;;11.43;;
34711;SDS011;20941;42.408;25.634;2023-02-26T02:00:09;29.08;;;11.07;;
34711;SDS011;20941;42.408;25.634;2023-02-26T02:02:34;30.13;;;10.98;;
34711;SDS011;20941;42.408;25.634;2023-02-26T02:05:02;25.90;;;11.25;;
34711;SDS011;20941;42.408;25.634;2023-02-26T02:07:28;32.90;;;11.40;;
34711;SDS011;20941;42.408;25.634;2023-02-26T02:09:53;27.02;;;11.70;;
34711;SDS011;20941;42.408;25.634;2023-02-26T02:12:37;25.60;;;10.98;;
34711;SDS011;20941;42.408;25.634;2023-02-26T02:33:18;53.95;;;26.90;;
34711;SDS011;20941;42.408;25.634;2023-02-26T02:35:45;34.13;;;13.63;;
34711;SDS011;20941;42.408;25.634;2023-02-26T02:38:22;51.60;;;25.48;;
34711;SDS011;20941;42.408;25.634;2023-02-26T02:40:54;44.00;;;20.98;;
34711;SDS011;20941;42.408;25.634;2023-02-26T02:43:22;48.45;;;20.88;;
34711;SDS011;20941;42.408;25.634;2023-02-26T02:48:21;44.15;;;19.63;;
34711;SDS011;20941;42.408;25.634;2023-02-26T02:50:51;41.40;;;17.13;;
34711;SDS011;20941;42.408;25.634;2023-02-26T02:53:23;42.30;;;18.55;;
34711;SDS011;20941;42.408;25.634;2023-02-26T02:56:01;41.40;;;14.93;;
34711;SDS011;20941;42.408;25.634;2023-02-26T02:58:28;30.55;;;12.43;;
34711;SDS011;20941;42.408;25.634;2023-02-26T03:00:55;32.53;;;12.25;;
34711;SDS011;20941;42.408;25.634;2023-02-26T03:06:05;34.90;;;9.60;;
34711;SDS011;20941;42.408;25.634;2023-02-26T03:08:33;31.00;;;9.32;;
34711;SDS011;20941;42.408;25.634;2023-02-26T03:11:00;33.10;;;9.93;;
34711;SDS011;20941;42.408;25.634;2023-02-26T03:13:25;29.05;;;9.55;;
34711;SDS011;20941;42.408;25.634;2023-02-26T03:18:40;35.33;;;10.77;;
34711;SDS011;20941;42.408;25.634;2023-02-26T03:21:11;29.20;;;9.70;;
34711;SDS011;20941;42.408;25.634;2023-02-26T03:23:45;32.85;;;9.60;;
34711;SDS011;20941;42.408;25.634;2023-02-26T03:26:13;33.13;;;9.32;;
34711;SDS011;20941;42.408;25.634;2023-02-26T03:28:53;26.95;;;8.95;;
34711;SDS011;20941;42.408;25.634;2023-02-26T03:31:21;25.83;;;8.80;;
34711;SDS011;20941;42.408;25.634;2023-02-26T03:33:57;28.55;;;8.57;;
34711;SDS011;20941;42.408;25.634;2023-02-26T03:39:06;20.65;;;7.47;;
34711;SDS011;20941;42.408;25.634;2023-02-26T03:41:48;20.73;;;7.07;;
34711;SDS011;20941;42.408;25.634;2023-02-26T03:44:20;31.55;;;7.55;;
34711;SDS011;20941;42.408;25.634;2023-02-26T03:46:50;21.85;;;7.55;;
34711;SDS011;20941;42.408;25.634;2023-02-26T03:49:30;29.73;;;9.27;;
34711;SDS011;20941;42.408;25.634;2023-02-26T03:51:58;30.90;;;7.68;;
34711;SDS011;20941;42.408;25.634;2023-02-26T03:54:28;27.55;;;8.50;;
34711;SDS011;20941;42.408;25.634;2023-02-26T03:56:54;22.67;;;8.52;;
34711;SDS011;20941;42.408;25.634;2023-02-26T03:59:20;26.30;;;7.70;;
34711;SDS011;20941;42.408;25.634;2023-02-26T04:01:47;30.30;;;7.70;;
34711;SDS011;20941;42.408;25.634;2023-02-26T04:06:57;21.35;;;7.03;;
34711;SDS011;20941;42.408;25.634;2023-02-26T04:09:23;28.85;;;7.55;;
34711;SDS011;20941;42.408;25.634;2023-02-26T04:11:49;26.50;;;7.55;;
34711;SDS011;20941;42.408;25.634;2023-02-26T04:14:15;25.83;;;6.95;;
34711;SDS011;20941;42.408;25.634;2023-02-26T04:16:41;21.50;;;6.88;;
34711;SDS011;20941;42.408;25.634;2023-02-26T04:19:07;23.10;;;7.70;;
34711;SDS011;20941;42.408;25.634;2023-02-26T04:21:32;23.83;;;6.82;;
34711;SDS011;20941;42.408;25.634;2023-02-26T04:23:57;32.45;;;7.22;;
34711;SDS011;20941;42.408;25.634;2023-02-26T04:26:23;21.70;;;7.47;;
34711;SDS011;20941;42.408;25.634;2023-02-26T04:28:48;25.67;;;7.03;;
34711;SDS011;20941;42.408;25.634;2023-02-26T04:31:13;23.17;;;7.15;;
34711;SDS011;20941;42.408;25.634;2023-02-26T04:33:39;26.33;;;7.13;;
34711;SDS011;20941;42.408;25.634;2023-02-26T04:36:05;22.83;;;7.15;;
34711;SDS011;20941;42.408;25.634;2023-02-26T04:38:30;28.15;;;6.88;;
34711;SDS011;20941;42.408;25.634;2023-02-26T04:40:55;22.90;;;7.20;;
34711;SDS011;20941;42.408;25.634;2023-02-26T04:43:21;20.23;;;7.60;;
34711;SDS011;20941;42.408;25.634;2023-02-26T04:45:47;24.67;;;7.32;;
34711;SDS011;20941;42.408;25.634;2023-02-26T04:48:13;28.50;;;6.82;;
34711;SDS011;20941;42.408;25.634;2023-02-26T04:50:38;25.05;;;7.18;;
34711;SDS011;20941;42.408;25.634;2023-02-26T04:53:04;32.45;;;8.32;;
34711;SDS011;20941;42.408;25.634;2023-02-26T04:55:29;29.48;;;8.07;;
34711;SDS011;20941;42.408;25.634;2023-02-26T04:57:54;25.00;;;7.57;;
34711;SDS011;20941;42.408;25.634;2023-02-26T05:00:20;25.08;;;7.07;;
34711;SDS011;20941;42.408;25.634;2023-02-26T05:02:45;22.27;;;7.10;;
34711;SDS011;20941;42.408;25.634;2023-02-26T05:05:11;24.70;;;8.80;;
34711;SDS011;20941;42.408;25.634;2023-02-26T05:07:36;26.48;;;7.53;;
34711;SDS011;20941;42.408;25.634;2023-02-26T05:10:02;23.92;;;6.88;;
34711;SDS011;20941;42.408;25.634;2023-02-26T05:12:28;18.15;;;7.13;;
34711;SDS011;20941;42.408;25.634;2023-02-26T05:14:53;20.52;;;6.93;;
34711;SDS011;20941;42.408;25.634;2023-02-26T05:17:18;21.45;;;7.00;;
34711;SDS011;20941;42.408;25.634;2023-02-26T05:19:44;16.63;;;7.10;;
34711;SDS011;20941;42.408;25.634;2023-02-26T05:22:09;21.48;;;7.63;;
34711;SDS011;20941;42.408;25.634;2023-02-26T05:24:34;16.88;;;6.88;;
34711;SDS011;20941;42.408;25.634;2023-02-26T05:27:00;19.98;;;7.18;;
34711;SDS011;20941;42.408;25.634;2023-02-26T05:29:25;23.75;;;7.28;;
34711;SDS011;20941;42.408;25.634;2023-02-26T05:31:51;19.75;;;6.60;;
34711;SDS011;20941;42.408;25.634;2023-02-26T05:34:16;21.23;;;7.10;;
34711;SDS011;20941;42.408;25.634;2023-02-26T05:36:41;22.38;;;6.97;;
34711;SDS011;20941;42.408;25.634;2023-02-26T05:39:07;28.58;;;7.15;;
34711;SDS011;20941;42.408;25.634;2023-02-26T05:41:33;20.98;;;7.20;;
34711;SDS011;20941;42.408;25.634;2023-02-26T05:43:58;23.77;;;7.63;;
34711;SDS011;20941;42.408;25.634;2023-02-26T05:46:23;29.10;;;7.90;;
34711;SDS011;20941;42.408;25.634;2023-02-26T05:48:49;19.52;;;7.22;;
34711;SDS011;20941;42.408;25.634;2023-02-26T05:51:14;21.40;;;7.35;;
34711;SDS011;20941;42.408;25.634;2023-02-26T05:53:39;20.75;;;8.68;;
34711;SDS011;20941;42.408;25.634;2023-02-26T05:56:05;23.27;;;7.47;;
34711;SDS011;20941;42.408;25.634;2023-02-26T05:58:30;24.20;;;7.95;;
34711;SDS011;20941;42.408;25.634;2023-02-26T06:00:58;28.63;;;8.02;;
34711;SDS011;20941;42.408;25.634;2023-02-26T06:03:23;23.05;;;8.10;;
34711;SDS011;20941;42.408;25.634;2023-02-26T06:05:48;21.45;;;8.32;;
34711;SDS011;20941;42.408;25.634;2023-02-26T06:08:13;21.60;;;6.93;;
34711;SDS011;20941;42.408;25.634;2023-02-26T06:10:40;27.13;;;8.13;;
34711;SDS011;20941;42.408;25.634;2023-02-26T06:13:05;24.92;;;7.45;;
34711;SDS011;20941;42.408;25.634;2023-02-26T06:15:31;18.88;;;7.47;;
34711;SDS011;20941;42.408;25.634;2023-02-26T06:17:56;25.02;;;7.78;;
34711;SDS011;20941;42.408;25.634;2023-02-26T06:20:22;26.65;;;7.72;;
34711;SDS011;20941;42.408;25.634;2023-02-26T06:22:47;29.98;;;8.32;;
34711;SDS011;20941;42.408;25.634;2023-02-26T06:25:12;27.75;;;7.32;;
34711;SDS011;20941;42.408;25.634;2023-02-26T06:27:38;25.10;;;8.20;;
34711;SDS011;20941;42.408;25.634;2023-02-26T06:30:03;18.75;;;6.85;;
34711;SDS011;20941;42.408;25.634;2023-02-26T06:32:29;20.00;;;7.00;;
34711;SDS011;20941;42.408;25.634;2023-02-26T06:34:54;24.60;;;6.85;;
34711;SDS011;20941;42.408;25.634;2023-02-26T06:37:19;22.58;;;6.75;;
34711;SDS011;20941;42.408;25.634;2023-02-26T06:39:45;23.73;;;6.80;;
34711;SDS011;20941;42.408;25.634;2023-02-26T06:42:10;18.83;;;6.72;;
34711;SDS011;20941;42.408;25.634;2023-02-26T06:44:35;20.25;;;6.88;;
34711;SDS011;20941;42.408;25.634;2023-02-26T06:47:01;23.08;;;6.38;;
34711;SDS011;20941;42.408;25.634;2023-02-26T06:49:26;26.20;;;6.22;;
34711;SDS011;20941;42.408;25.634;2023-02-26T06:51:51;24.00;;;6.57;;
34711;SDS011;20941;42.408;25.634;2023-02-26T06:54:17;35.17;;;6.85;;
34711;SDS011;20941;42.408;25.634;2023-02-26T06:56:42;19.98;;;6.78;;
34711;SDS011;20941;42.408;25.634;2023-02-26T06:59:07;35.28;;;7.25;;
34711;SDS011;20941;42.408;25.634;2023-02-26T07:01:33;22.58;;;6.03;;
34711;SDS011;20941;42.408;25.634;2023-02-26T07:03:58;14.70;;;6.28;;
34711;SDS011;20941;42.408;25.634;2023-02-26T07:06:23;22.95;;;6.88;;
34711;SDS011;20941;42.408;25.634;2023-02-26T07:08:49;27.42;;;6.78;;
34711;SDS011;20941;42.408;25.634;2023-02-26T07:11:14;36.78;;;7.05;;
34711;SDS011;20941;42.408;25.634;2023-02-26T07:13:39;22.80;;;6.53;;
34711;SDS011;20941;42.408;25.634;2023-02-26T07:16:05;25.50;;;5.78;;
34711;SDS011;20941;42.408;25.634;2023-02-26T07:18:33;30.63;;;6.15;;
34711;SDS011;20941;42.408;25.634;2023-02-26T07:20:59;17.13;;;4.50;;
34711;SDS011;20941;42.408;25.634;2023-02-26T07:23:24;20.38;;;5.93;;
34711;SDS011;20941;42.408;25.634;2023-02-26T07:25:50;39.70;;;7.10;;
34711;SDS011;20941;42.408;25.634;2023-02-26T07:28:15;26.38;;;7.57;;
34711;SDS011;20941;42.408;25.634;2023-02-26T07:30:40;25.65;;;5.80;;
34711;SDS011;20941;42.408;25.634;2023-02-26T07:33:07;21.08;;;6.00;;
34711;SDS011;20941;42.408;25.634;2023-02-26T07:35:32;24.00;;;7.05;;
34711;SDS011;20941;42.408;25.634;2023-02-26T07:37:57;17.88;;;6.00;;
34711;SDS011;20941;42.408;25.634;2023-02-26T07:40:23;19.25;;;5.40;;
34711;SDS011;20941;42.408;25.634;2023-02-26T07:42:49;19.42;;;4.43;;
34711;SDS011;20941;42.408;25.634;2023-02-26T07:45:14;24.52;;;6.88;;
34711;SDS011;20941;42.408;25.634;2023-02-26T07:47:58;18.67;;;6.57;;
34711;SDS011;20941;42.408;25.634;2023-02-26T07:50:24;27.23;;;5.80;;
34711;SDS011;20941;42.408;25.634;2023-02-26T07:52:50;24.95;;;6.03;;
34711;SDS011;20941;42.408;25.634;2023-02-26T07:55:16;20.85;;;5.53;;
34711;SDS011;20941;42.408;25.634;2023-02-26T07:57:41;20.25;;;5.35;;
34711;SDS011;20941;42.408;25.634;2023-02-26T08:00:07;25.48;;;5.40;;
34711;SDS011;20941;42.408;25.634;2023-02-26T08:02:32;19.40;;;5.85;;
34711;SDS011;20941;42.408;25.634;2023-02-26T08:04:57;18.63;;;5.15;;
34711;SDS011;20941;42.408;25.634;2023-02-26T08:07:23;27.40;;;6.05;;
34711;SDS011;20941;42.408;25.634;2023-02-26T08:09:48;18.13;;;5.40;;
34711;SDS011;20941;42.408;25.634;2023-02-26T08:12:13;21.52;;;5.47;;
34711;SDS011;20941;42.408;25.634;2023-02-26T08:14:39;21.25;;;5.70;;
34711;SDS011;20941;42.408;25.634;2023-02-26T08:17:06;22.30;;;6.75;;
34711;SDS011;20941;42.408;25.634;2023-02-26T08:19:31;37.70;;;5.68;;
34711;SDS011;20941;42.408;25.634;2023-02-26T08:21:56;19.55;;;4.97;;
34711;SDS011;20941;42.408;25.634;2023-02-26T08:24:22;19.63;;;5.60;;
34711;SDS011;20941;42.408;25.634;2023-02-26T08:26:47;19.25;;;5.10;;
34711;SDS011;20941;42.408;25.634;2023-02-26T08:29:13;21.70;;;5.38;;
34711;SDS011;20941;42.408;25.634;2023-02-26T08:31:38;20.08;;;5.47;;
34711;SDS011;20941;42.408;25.634;2023-02-26T08:34:03;20.45;;;5.45;;
34711;SDS011;20941;42.408;25.634;2023-02-26T08:36:29;24.42;;;5.25;;
34711;SDS011;20941;42.408;25.634;2023-02-26T08:38:54;21.50;;;5.07;;
34711;SDS011;20941;42.408;25.634;2023-02-26T08:41:20;24.77;;;4.95;;
34711;SDS011;20941;42.408;25.634;2023-02-26T08:43:46;14.02;;;5.10;;
34711;SDS011;20941;42.408;25.634;2023-02-26T08:46:11;21.02;;;4.80;;
34711;SDS011;20941;42.408;25.634;2023-02-26T08:48:37;16.45;;;5.07;;
34711;SDS011;20941;42.408;25.634;2023-02-26T08:51:02;19.80;;;5.80;;
34711;SDS011;20941;42.408;25.634;2023-02-26T08:53:27;12.02;;;3.63;;
34711;SDS011;20941;42.408;25.634;2023-02-26T08:55:52;20.40;;;5.05;;
34711;SDS011;20941;42.408;25.634;2023-02-26T08:58:19;14.82;;;4.22;;
34711;SDS011;20941;42.408;25.634;2023-02-26T09:00:44;21.40;;;4.40;;
34711;SDS011;20941;42.408;25.634;2023-02-26T09:03:10;24.17;;;5.35;;
34711;SDS011;20941;42.408;25.634;2023-02-26T09:05:35;22.13;;;5.03;;
34711;SDS011;20941;42.408;25.634;2023-02-26T09:08:01;20.27;;;4.22;;
34711;SDS011;20941;42.408;25.634;2023-02-26T09:10:26;19.90;;;4.15;;
34711;SDS011;20941;42.408;25.634;2023-02-26T09:12:52;17.60;;;4.43;;
34711;SDS011;20941;42.408;25.634;2023-02-26T09:15:17;20.27;;;4.75;;
34711;SDS011;20941;42.408;25.634;2023-02-26T09:17:44;17.38;;;4.80;;
34711;SDS011;20941;42.408;25.634;2023-02-26T09:20:09;24.80;;;4.38;;
34711;SDS011;20941;42.408;25.634;2023-02-26T09:22:35;20.10;;;5.68;;
34711;SDS011;20941;42.408;25.634;2023-02-26T09:25:01;19.83;;;4.57;;
34711;SDS011;20941;42.408;25.634;2023-02-26T09:27:26;17.63;;;4.68;;
34711;SDS011;20941;42.408;25.634;2023-02-26T09:29:51;11.57;;;3.15;;
34711;SDS011;20941;42.408;25.634;2023-02-26T09:32:17;19.48;;;4.50;;
34711;SDS011;20941;42.408;25.634;2023-02-26T09:34:42;26.83;;;4.78;;
34711;SDS011;20941;42.408;25.634;2023-02-26T09:37:08;22.83;;;4.30;;
34711;SDS011;20941;42.408;25.634;2023-02-26T09:39:34;18.85;;;5.10;;
34711;SDS011;20941;42.408;25.634;2023-02-26T09:42:23;16.33;;;4.97;;
34711;SDS011;20941;42.408;25.634;2023-02-26T09:44:47;14.43;;;4.63;;
34711;SDS011;20941;42.408;25.634;2023-02-26T09:49:48;19.30;;;4.25;;
34711;SDS011;20941;42.408;25.634;2023-02-26T09:54:46;16.88;;;4.28;;
34711;SDS011;20941;42.408;25.634;2023-02-26T09:57:14;19.38;;;4.45;;
34711;SDS011;20941;42.408;25.634;2023-02-26T09:59:44;16.75;;;4.30;;
34711;SDS011;20941;42.408;25.634;2023-02-26T10:08:07;18.85;;;4.65;;
34711;SDS011;20941;42.408;25.634;2023-02-26T10:10:53;19.45;;;4.70;;
34711;SDS011;20941;42.408;25.634;2023-02-26T10:15:52;11.77;;;4.05;;
34711;SDS011;20941;42.408;25.634;2023-02-26T10:18:29;15.90;;;4.38;;
34711;SDS011;20941;42.408;25.634;2023-02-26T10:25:51;17.08;;;4.55;;
34711;SDS011;20941;42.408;25.634;2023-02-26T10:30:59;21.70;;;4.72;;
34711;SDS011;20941;42.408;25.634;2023-02-26T10:36:01;19.83;;;4.03;;
34711;SDS011;20941;42.408;25.634;2023-02-26T10:38:30;29.00;;;5.55;;
34711;SDS011;20941;42.408;25.634;2023-02-26T10:43:26;20.90;;;4.53;;
34711;SDS011;20941;42.408;25.634;2023-02-26T10:50:57;21.70;;;4.43;;
34711;SDS011;20941;42.408;25.634;2023-02-26T10:53:23;27.38;;;5.80;;
34711;SDS011;20941;42.408;25.634;2023-02-26T10:55:55;17.63;;;4.40;;
34711;SDS011;20941;42.408;25.634;2023-02-26T10:58:22;50.65;;;6.07;;
34711;SDS011;20941;42.408;25.634;2023-02-26T11:00:49;21.45;;;4.63;;
34711;SDS011;20941;42.408;25.634;2023-02-26T11:03:19;15.90;;;5.07;;
34711;SDS011;20941;42.408;25.634;2023-02-26T11:05:44;31.40;;;4.93;;
34711;SDS011;20941;42.408;25.634;2023-02-26T11:08:18;15.77;;;4.10;;
34711;SDS011;20941;42.408;25.634;2023-02-26T11:10:49;14.75;;;4.28;;
34711;SDS011;20941;42.408;25.634;2023-02-26T11:13:15;21.25;;;4.18;;
34711;SDS011;20941;42.408;25.634;2023-02-26T11:15:41;16.42;;;4.72;;
34711;SDS011;20941;42.408;25.634;2023-02-26T11:18:08;28.88;;;5.00;;
34711;SDS011;20941;42.408;25.634;2023-02-26T11:20:38;22.50;;;4.75;;
34711;SDS011;20941;42.408;25.634;2023-02-26T11:23:06;31.83;;;4.60;;
34711;SDS011;20941;42.408;25.634;2023-02-26T11:25:34;19.42;;;4.63;;
34711;SDS011;20941;42.408;25.634;2023-02-26T11:28:05;22.98;;;4.45;;
34711;SDS011;20941;42.408;25.634;2023-02-26T11:30:33;24.20;;;4.47;;
34711;SDS011;20941;42.408;25.634;2023-02-26T11:33:03;17.70;;;3.78;;
34711;SDS011;20941;42.408;25.634;2023-02-26T11:35:28;17.92;;;4.38;;
34711;SDS011;20941;42.408;25.634;2023-02-26T11:37:56;20.08;;;4.07;;
34711;SDS011;20941;42.408;25.634;2023-02-26T11:42:57;21.17;;;4.22;;
34711;SDS011;20941;42.408;25.634;2023-02-26T11:45:23;22.25;;;5.22;;
34711;SDS011;20941;42.408;25.634;2023-02-26T11:47:49;18.15;;;4.43;;
34711;SDS011;20941;42.408;25.634;2023-02-26T11:50:18;14.25;;;3.83;;
34711;SDS011;20941;42.408;25.634;2023-02-26T11:52:47;17.88;;;4.35;;
34711;SDS011;20941;42.408;25.634;2023-02-26T11:57:43;13.50;;;4.22;;
34711;SDS011;20941;42.408;25.634;2023-02-26T12:00:19;37.90;;;4.43;;
34711;SDS011;20941;42.408;25.634;2023-02-26T12:02:44;27.98;;;4.43;;
34711;SDS011;20941;42.408;25.634;2023-02-26T12:05:10;19.50;;;4.93;;
34711;SDS011;20941;42.408;25.634;2023-02-26T12:07:38;27.85;;;5.57;;
34711;SDS011;20941;42.408;25.634;2023-02-26T12:10:08;29.05;;;4.47;;
34711;SDS011;20941;42.408;25.634;2023-02-26T12:20:14;21.40;;;4.03;;
34711;SDS011;20941;42.408;25.634;2023-02-26T12:30:08;10.88;;;2.97;;
34711;SDS011;20941;42.408;25.634;2023-02-26T12:43:14;18.63;;;4.45;;
34711;SDS011;20941;42.408;25.634;2023-02-26T12:53:19;17.63;;;4.03;;
34711;SDS011;20941;42.408;25.634;2023-02-26T12:58:46;20.98;;;4.70;;
34711;SDS011;20941;42.408;25.634;2023-02-26T13:01:30;18.00;;;4.22;;
34711;SDS011;20941;42.408;25.634;2023-02-26T13:12:03;18.25;;;3.80;;
34711;SDS011;20941;42.408;25.634;2023-02-26T13:21:49;21.48;;;4.00;;
34711;SDS011;20941;42.408;25.634;2023-02-26T13:24:35;22.52;;;4.47;;
34711;SDS011;20941;42.408;25.634;2023-02-26T13:27:02;20.98;;;4.53;;
34711;SDS011;20941;42.408;25.634;2023-02-26T13:29:31;22.30;;;4.45;;
34711;SDS011;20941;42.408;25.634;2023-02-26T13:32:20;26.40;;;4.85;;
34711;SDS011;20941;42.408;25.634;2023-02-26T13:34:56;16.00;;;4.07;;
34711;SDS011;20941;42.408;25.634;2023-02-26T13:37:33;19.70;;;4.65;;
34711;SDS011;20941;42.408;25.634;2023-02-26T13:40:19;37.28;;;8.48;;
34711;SDS011;20941;42.408;25.634;2023-02-26T13:42:52;19.45;;;3.80;;
34711;SDS011;20941;42.408;25.634;2023-02-26T13:53:32;22.88;;;5.05;;
34711;SDS011;20941;42.408;25.634;2023-02-26T13:55:53;22.85;;;4.22;;
34711;SDS011;20941;42.408;25.634;2023-02-26T13:58:34;20.88;;;4.18;;
34711;SDS011;20941;42.408;25.634;2023-02-26T14:03:43;14.02;;;3.47;;
34711;SDS011;20941;42.408;25.634;2023-02-26T14:11:03;20.40;;;3.88;;
34711;SDS011;20941;42.408;25.634;2023-02-26T14:13:35;21.98;;;4.07;;
34711;SDS011;20941;42.408;25.634;2023-02-26T14:16:08;20.42;;;3.67;;
34711;SDS011;20941;42.408;25.634;2023-02-26T14:22:12;27.73;;;4.57;;
34711;SDS011;20941;42.408;25.634;2023-02-26T14:24:15;28.15;;;4.82;;
34711;SDS011;20941;42.408;25.634;2023-02-26T14:26:43;16.90;;;4.38;;
34711;SDS011;20941;42.408;25.634;2023-02-26T14:29:13;24.40;;;4.22;;
34711;SDS011;20941;42.408;25.634;2023-02-26T14:31:46;28.70;;;4.55;;
34711;SDS011;20941;42.408;25.634;2023-02-26T14:34:15;23.20;;;4.55;;
34711;SDS011;20941;42.408;25.634;2023-02-26T14:36:45;20.05;;;4.35;;
34711;SDS011;20941;42.408;25.634;2023-02-26T14:39:18;16.58;;;4.63;;
34711;SDS011;20941;42.408;25.634;2023-02-26T14:44:17;13.27;;;3.60;;
34711;SDS011;20941;42.408;25.634;2023-02-26T14:46:44;12.93;;;3.70;;
34711;SDS011;20941;42.408;25.634;2023-02-26T14:49:16;15.90;;;3.90;;
34711;SDS011;20941;42.408;25.634;2023-02-26T14:59:53;19.35;;;3.80;;
34711;SDS011;20941;42.408;25.634;2023-02-26T15:02:29;11.60;;;3.20;;
34711;SDS011;20941;42.408;25.634;2023-02-26T15:07:33;14.35;;;3.72;;
34711;SDS011;20941;42.408;25.634;2023-02-26T15:10:06;14.93;;;2.83;;
34711;SDS011;20941;42.408;25.634;2023-02-26T15:12:48;21.30;;;4.35;;
34711;SDS011;20941;42.408;25.634;2023-02-26T15:18:03;16.10;;;3.30;;
34711;SDS011;20941;42.408;25.634;2023-02-26T15:25:42;19.25;;;3.97;;
34711;SDS011;20941;42.408;25.634;2023-02-26T15:28:17;17.40;;;3.78;;
34711;SDS011;20941;42.408;25.634;2023-02-26T15:30:45;19.52;;;3.40;;
34711;SDS011;20941;42.408;25.634;2023-02-26T15:33:12;69.97;;;8.88;;
34711;SDS011;20941;42.408;25.634;2023-02-26T15:35:37;18.83;;;2.78;;
34711;SDS011;20941;42.408;25.634;2023-02-26T15:38:03;62.00;;;6.25;;
34711;SDS011;20941;42.408;25.634;2023-02-26T15:40:35;27.60;;;3.80;;
34711;SDS011;20941;42.408;25.634;2023-02-26T15:43:02;17.20;;;3.30;;
34711;SDS011;20941;42.408;25.634;2023-02-26T15:48:00;20.65;;;3.70;;
34711;SDS011;20941;42.408;25.634;2023-02-26T15:50:30;20.20;;;4.43;;
34711;SDS011;20941;42.408;25.634;2023-02-26T15:52:57;36.70;;;4.93;;
34711;SDS011;20941;42.408;25.634;2023-02-26T15:55:23;23.58;;;4.32;;
34711;SDS011;20941;42.408;25.634;2023-02-26T15:57:49;24.38;;;4.20;;
34711;SDS011;20941;42.408;25.634;2023-02-26T16:00:15;21.48;;;4.55;;
34711;SDS011;20941;42.408;25.634;2023-02-26T16:02:41;16.20;;;2.95;;
34711;SDS011;20941;42.408;25.634;2023-02-26T16:05:07;24.40;;;4.80;;
34711;SDS011;20941;42.408;25.634;2023-02-26T16:07:32;17.35;;;4.35;;
34711;SDS011;20941;42.408;25.634;2023-02-26T16:10:06;20.70;;;4.13;;
34711;SDS011;20941;42.408;25.634;2023-02-26T16:14:58;20.75;;;4.55;;
34711;SDS011;20941;42.408;25.634;2023-02-26T16:17:26;19.63;;;4.55;;
34711;SDS011;20941;42.408;25.634;2023-02-26T16:19:51;15.60;;;4.32;;
34711;SDS011;20941;42.408;25.634;2023-02-26T16:22:34;38.72;;;5.43;;
34711;SDS011;20941;42.408;25.634;2023-02-26T16:27:33;23.73;;;4.10;;
34711;SDS011;20941;42.408;25.634;2023-02-26T16:29:59;25.40;;;5.35;;
34711;SDS011;20941;42.408;25.634;2023-02-26T16:32:27;42.20;;;5.85;;
34711;SDS011;20941;42.408;25.634;2023-02-26T16:34:58;22.15;;;4.20;;
34711;SDS011;20941;42.408;25.634;2023-02-26T16:47:44;26.98;;;4.78;;
34711;SDS011;20941;42.408;25.634;2023-02-26T16:50:20;25.35;;;5.00;;
34711;SDS011;20941;42.408;25.634;2023-02-26T16:53:00;18.65;;;5.00;;
34711;SDS011;20941;42.408;25.634;2023-02-26T16:55:26;21.45;;;5.30;;
34711;SDS011;20941;42.408;25.634;2023-02-26T16:57:52;22.20;;;5.60;;
34711;SDS011;20941;42.408;25.634;2023-02-26T17:00:20;18.00;;;6.20;;
34711;SDS011;20941;42.408;25.634;2023-02-26T17:02:54;16.60;;;4.32;;
34711;SDS011;20941;42.408;25.634;2023-02-26T17:05:21;23.17;;;5.35;;
34711;SDS011;20941;42.408;25.634;2023-02-26T17:07:53;11.32;;;3.67;;
34711;SDS011;20941;42.408;25.634;2023-02-26T17:10:29;18.85;;;5.45;;
34711;SDS011;20941;42.408;25.634;2023-02-26T17:13:10;20.50;;;4.47;;
34711;SDS011;20941;42.408;25.634;2023-02-26T17:15:37;24.08;;;4.63;;
34711;SDS011;20941;42.408;25.634;2023-02-26T17:18:03;19.25;;;4.03;;
34711;SDS011;20941;42.408;25.634;2023-02-26T17:20:28;14.68;;;4.28;;
34711;SDS011;20941;42.408;25.634;2023-02-26T17:22:55;18.83;;;4.85;;
34711;SDS011;20941;42.408;25.634;2023-02-26T17:25:21;18.38;;;4.38;;
34711;SDS011;20941;42.408;25.634;2023-02-26T17:27:47;16.55;;;3.85;;
34711;SDS011;20941;42.408;25.634;2023-02-26T17:30:14;14.75;;;4.28;;